Terminal Aerodrome Forecast
Issued by NWS Cleveland, OH

Home | Current Version | Previous Version | Graphics & Text | Print | Product List | Glossary On
Versions: 1 2 3 4 5 6 7 8 9 10 11 12 13 14 15 16 17 18 19 20 21
000
FTUS41 KCLE 181700
TAFYNG
TAF
KYNG 181729Z 1818/1918 36008KT P6SM FEW035 SCT045
      TEMPO 1818/1821 BKN045
     FM190200 04005KT P6SM SKC
     FM190800 08004KT P6SM SKC
      TEMPO 1909/1913 6SM BR
     FM191400 10006KT P6SM SCT040=

USA.gov is the U.S. government's official web portal to all federal, state and local government web resources and services.